Durango Ski Resort, Colorado Weather observations

Data are for observation ending at time listed.
 Day   Time    Ave.   Ave.  Ave.  Vector   Max.    Total    Solar   Ave.  
  of    of     Air    Rel.  Wind   Wind    Wind   Precip.   Rad.    Soil  
Year   Day     Temp.  Hum.  Speed  Dir.    Gust                     Temp. 
2015   (PST)    F      %     mph   deg.    mph      in.     W/m2     F   
------------------------------------------------------------------------------
 106   21:00   16.1    93    1.7   296      6.1    99999.00   99999    99999.0
 106   21:10   16.0    96    0.9   300      5.2    99999.00   99999    99999.0
 106   21:20   16.1    96    0.0   300      2.7    99999.00   99999    99999.0
 106   21:30   16.0    97    1.0   300      4.4    99999.00   99999    99999.0
 106   21:40   15.9    96    0.0     0      0.0    99999.00   99999    99999.0
 106   21:50   15.9    95    0.0     0      0.0    99999.00   99999    99999.0
 106   22:00   15.8    95    0.0     0      0.0    99999.00   99999    99999.0
 106   22:10   16.1    94    0.5   256      5.2    99999.00   99999    99999.0
 106   22:20   15.8    94    0.5   256      3.9    99999.00   99999    99999.0
 106   22:30   15.6    95    0.0     0      0.0    99999.00   99999    99999.0
 106   22:40   16.0    95    0.0     0      0.0    99999.00   99999    99999.0
 106   22:50   16.0    95    0.0     0      0.0    99999.00   99999    99999.0
 106   23:00   15.8    95    0.1   249      3.1    99999.00   99999    99999.0
 106   23:10   15.6    95    2.7   214      7.4    99999.00   99999    99999.0
 106   23:20   15.0    96    1.3   224      7.4    99999.00   99999    99999.0
 106   23:30   15.1    96    0.2   212      4.4    99999.00   99999    99999.0
 106   23:40   15.1    96    0.0     0      0.0    99999.00   99999    99999.0
 106   23:50   14.8    95    0.9   225      4.8    99999.00   99999    99999.0
 107    0:00   14.4    95    2.2   216      5.7    99999.00   99999    99999.0
 107    0:10   14.3    96    0.0     0      0.0    99999.00   99999    99999.0
 107    0:20   14.4    95    0.0     0      0.0    99999.00   99999    99999.0
 107    0:30   14.4    95    0.0     0      0.0    99999.00   99999    99999.0
 107    0:40   14.4    95    0.0     0      0.0    99999.00   99999    99999.0
 107    0:50   14.5    94    0.0     0      0.0    99999.00   99999    99999.0
 107    1:00   14.3    95    0.0     0      0.0    99999.00   99999    99999.0
 107    1:10   14.7    97    0.0     0      0.0    99999.00   99999    99999.0
 107    1:20   14.9    96    0.0     0      0.0    99999.00   99999    99999.0
 107    1:30   14.6    96    0.0     0      0.0    99999.00   99999    99999.0
 107    1:40   14.5    96    0.0     0      0.0    99999.00   99999    99999.0
 107    1:50   14.0    96    0.0     0      0.0    99999.00   99999    99999.0
 107    2:00   13.8    96    0.0     0      0.0    99999.00   99999    99999.0
 107    2:10   13.8    96    0.0     0      0.0    99999.00   99999    99999.0
 107    2:20   13.9    95    0.0     0      0.0    99999.00   99999    99999.0
 107    2:30   13.8    94    0.0     0      0.0    99999.00   99999    99999.0
 107    2:40   13.7    94    0.0     0      0.0    99999.00   99999    99999.0
 107    2:50   13.6    94    0.0     0      0.0    99999.00   99999    99999.0
 107    3:00   13.5    92    0.0     0      0.0    99999.00   99999    99999.0
 107    3:10   13.6    91    0.0     0      0.0    99999.00   99999    99999.0
 107    3:20   13.4    91    0.0     0      0.0    99999.00   99999    99999.0
 107    3:30   13.6    90    0.0     0      0.0    99999.00   99999    99999.0
 107    3:40   13.7    90    0.0     0      0.0    99999.00   99999    99999.0
 107    3:50   13.7    89    0.0     0      0.0    99999.00   99999    99999.0
 107    4:00   13.9    89    0.0     0      0.0    99999.00   99999    99999.0
 107    4:10   14.0    89    0.0     0      0.0    99999.00   99999    99999.0
 107    4:20   13.9    89    0.0     0      0.0    99999.00   99999    99999.0
 107    4:30   13.6    86    0.0     0      0.0    99999.00   99999    99999.0
 107    4:40   13.6    79    0.0     0      0.0    99999.00   99999    99999.0
 107    4:50   13.9    79    0.0     0      0.0    99999.00   99999    99999.0
 107    5:00   13.8    82    0.0     0      0.0    99999.00   99999    99999.0
 107    5:10   13.5    87    0.0     0      0.0    99999.00   99999    99999.0
 107    5:20   13.3    90    0.0     0      0.0    99999.00   99999    99999.0
 107    5:30   13.3    90    0.0     0      0.0    99999.00   99999    99999.0
 107    5:40   13.1    89    0.0     0      0.0    99999.00   99999    99999.0
 107    5:50   13.0    90    0.0     0      0.0    99999.00   99999    99999.0
 107    6:00   13.7    87    0.0     0      0.0    99999.00   99999    99999.0
 107    6:10   14.1    86    0.0     0      0.0    99999.00   99999    99999.0
 107    6:20   14.7    84    0.0     0      0.0    99999.00   99999    99999.0
 107    6:30   15.4    82    0.0     0      0.0    99999.00   99999    99999.0
 107    6:40   17.0    78    0.0     0      0.0    99999.00   99999    99999.0
 107    6:50   15.9    80    0.0     0      0.0    99999.00   99999    99999.0
 107    7:00   15.6    82    0.0     0      0.0    99999.00   99999    99999.0
 107    7:10   15.3    82    0.0     0      0.0    99999.00   99999    99999.0
 107    7:20   16.2    80    0.0     0      0.0    99999.00   99999    99999.0
 107    7:30   16.3    80    0.0     0      0.0    99999.00   99999    99999.0
 107    7:40   17.3    77    0.0     0      0.0    99999.00   99999    99999.0
 107    7:50   17.9    71    0.0     0      0.0    99999.00   99999    99999.0
 107    8:00   18.7    72    0.0     0      0.0    99999.00   99999    99999.0
 107    8:10   20.0    67    0.0     0      0.0    99999.00   99999    99999.0
 107    8:20   17.9    66    0.0     0      0.0    99999.00   99999    99999.0
 107    8:30   17.2    67    0.0     0      0.0    99999.00   99999    99999.0
 107    8:40   17.0    67    0.0     0      0.0    99999.00   99999    99999.0
 107    8:50   17.7    64    0.0     0      0.0    99999.00   99999    99999.0
 107    9:00   19.8    61    0.0     0      0.0    99999.00   99999    99999.0
 107    9:10   19.3    61    0.0     0      0.0    99999.00   99999    99999.0
 107    9:20   19.8    61    0.0     0      0.0    99999.00   99999    99999.0
 107    9:30   19.6    62    0.0     0      0.0    99999.00   99999    99999.0
 107    9:40   19.9    61    0.0     0      0.0    99999.00   99999    99999.0
 107    9:50   20.2    61    0.0     0      0.0    99999.00   99999    99999.0
 107   10:00   20.1    63    0.0     0      0.0    99999.00   99999    99999.0
 107   10:10   18.3    71    0.1    76      3.5    99999.00   99999    99999.0
 107   10:20   18.4    78    0.6   183      5.7    99999.00   99999    99999.0
 107   10:30   18.0    82    2.6   190      7.8    99999.00   99999    99999.0
 107   10:40   18.9    85    2.2   189      7.8    99999.00   99999    99999.0
 107   10:50   18.4    83    3.4   200     11.2    99999.00   99999    99999.0
 107   11:00   19.6    82    2.0   177      6.9    99999.00   99999    99999.0
 107   11:10   19.2    81    3.2   174      7.4    99999.00   99999    99999.0
 107   11:20   19.7    78    2.5   144      6.5    99999.00   99999    99999.0
 107   11:30   19.9    76    2.5   199      6.1    99999.00   99999    99999.0
 107   11:40   20.7    75    1.3   181      6.1    99999.00   99999    99999.0
 107   11:50   19.9    80    2.5   195      7.4    99999.00   99999    99999.0
 107   12:00   20.8    78    3.3   184      7.4    99999.00   99999    99999.0
 107   12:10   21.5    77    4.3   173      8.2    99999.00   99999    99999.0
 107   12:20   21.1    79    4.5   172      7.4    99999.00   99999    99999.0
 107   12:30   20.7    81    3.9   176      8.6    99999.00   99999    99999.0
 107   12:40   20.5    84    3.0   174      7.4    99999.00   99999    99999.0
 107   12:50   19.7    86    3.6   176     11.2    99999.00   99999    99999.0
 107   13:00   19.6    82    3.6   180      8.2    99999.00   99999    99999.0
 107   13:10   19.8    83    1.0   170      5.7    99999.00   99999    99999.0
 107   13:20   19.5    86    1.6   178      5.7    99999.00   99999    99999.0
 107   13:30   19.1    90    0.5   158      3.9    99999.00   99999    99999.0
 107   13:40   18.1    93    1.4   132      6.1    99999.00   99999    99999.0
 107   13:50   18.2    92    0.3   113      3.9    99999.00   99999    99999.0
 107   14:00   19.5    91    1.2   184      4.8    99999.00   99999    99999.0
 107   14:10   19.3    91    3.3   170      7.8    99999.00   99999    99999.0
 107   14:20   18.2    93    4.7   180     10.8    99999.00   99999    99999.0
 107   14:30   17.6    95    4.0   176      7.8    99999.00   99999    99999.0
 107   14:40   18.2    94    3.3   172      6.5    99999.00   99999    99999.0
 107   14:50   19.2    92    0.6   164      5.2    99999.00   99999    99999.0
 107   15:00   19.8    91    1.1   166      6.1    99999.00   99999    99999.0
 107   15:10   19.7    91    2.0   166      4.8    99999.00   99999    99999.0
 107   15:20   19.7    92    2.3   180      5.2    99999.00   99999    99999.0
 107   15:30   19.6    92    3.1   172      6.9    99999.00   99999    99999.0
 107   15:40   20.0    91    2.3   176      6.9    99999.00   99999    99999.0
 107   15:50   19.3    92    3.6   175      8.6    99999.00   99999    99999.0
 107   16:00   18.6    92    5.5   178     11.2    99999.00   99999    99999.0
 107   16:10   18.6    92    4.5   178     13.3    99999.00   99999    99999.0
 107   16:20   18.8    92    3.6   179      8.6    99999.00   99999    99999.0
 107   16:30   19.0    93    1.1   178      5.2    99999.00   99999    99999.0
 107   16:40   19.3    93    0.5   169      4.4    99999.00   99999    99999.0
 107   16:50   18.9    93    1.5   176      9.1    99999.00   99999    99999.0
 107   17:00   18.7    94    0.0     0      0.0    99999.00   99999    99999.0
 107   17:10   18.5    95    0.0     0      0.0    99999.00   99999    99999.0
 107   17:20   18.4    95    0.0   157      3.1    99999.00   99999    99999.0
 107   17:30   18.2    95    1.0   188      6.9    99999.00   99999    99999.0
 107   17:40   18.0    94    1.9   167      6.5    99999.00   99999    99999.0
 107   17:50   17.4    95    2.5   174      7.4    99999.00   99999    99999.0
 107   18:00   17.5    96    1.3   186      6.5    99999.00   99999    99999.0
 107   18:10   17.5    96    0.0     0      0.0    99999.00   99999    99999.0
 107   18:20   17.5    96    0.7   174      4.4    99999.00   99999    99999.0
 107   18:30   17.2    96    0.3   171      3.9    99999.00   99999    99999.0
 107   18:40   17.0    95    0.2   165      3.9    99999.00   99999    99999.0
 107   18:50   16.8    94    0.5   175      3.9    99999.00   99999    99999.0
 107   19:00   16.6    93    0.0     0      0.0    99999.00   99999    99999.0
 107   19:10   16.7    92    0.0     0      0.0    99999.00   99999    99999.0
 107   19:20   16.6    92    0.0     0      0.0    99999.00   99999    99999.0
 107   19:30   16.5    92    0.0     0      0.0    99999.00   99999    99999.0
 107   19:40   16.8    90    0.0     0      0.0    99999.00   99999    99999.0
 107   19:50   16.8    90    0.0     0      0.0    99999.00   99999    99999.0
 107   20:00   16.8    88    0.0     0      0.0    99999.00   99999    99999.0
 107   20:10   16.7    88    0.0     0      0.0    99999.00   99999    99999.0
 107   20:20   16.7    88    0.0     0      0.0    99999.00   99999    99999.0
 107   20:30   16.8    88    0.0     0      0.0    99999.00   99999    99999.0
 107   20:40   16.5    91    0.0     0      0.0    99999.00   99999    99999.0
 107   20:50   16.4    92    0.0     0      0.0    99999.00   99999    99999.0

Return to Durango Ski Resort, Colorado graphs page.


Western Regional Climate Center,wrcc@dri.edu